createdAt,value
2022-09-28T00:01:08.797Z,3.85
2022-09-28T00:03:35.344Z,2.20
2022-09-28T00:06:09.223Z,1.92
2022-09-28T00:08:35.783Z,3.47
2022-09-28T00:11:02.379Z,1.65
2022-09-28T00:13:29.407Z,2.55
2022-09-28T00:16:02.045Z,1.70
2022-09-28T00:18:28.397Z,1.40
2022-09-28T00:21:05.531Z,1.85
2022-09-28T00:23:34.733Z,2.17
2022-09-28T00:26:04.883Z,3.67
2022-09-28T00:28:31.371Z,3.58
2022-09-28T00:30:58.176Z,2.28
2022-09-28T00:33:24.713Z,2.40
2022-09-28T00:36:00.120Z,2.00
2022-09-28T00:38:27.329Z,2.83
2022-09-28T00:40:53.811Z,4.35
2022-09-28T00:43:20.550Z,2.03
2022-09-28T00:45:51.569Z,2.35
2022-09-28T00:48:17.858Z,2.00
2022-09-28T00:50:45.021Z,3.67
2022-09-28T00:53:12.871Z,2.92
2022-09-28T00:55:48.200Z,2.08
2022-09-28T00:58:18.079Z,2.47
2022-09-28T01:00:44.390Z,3.00
2022-09-28T01:03:10.822Z,1.77
2022-09-28T01:05:39.072Z,1.58
2022-09-28T01:08:05.723Z,1.92
2022-09-28T01:10:32.222Z,1.85
2022-09-28T01:12:59.324Z,1.73
2022-09-28T01:15:27.357Z,3.00
2022-09-28T01:17:56.797Z,1.60
2022-09-28T01:20:23.025Z,2.42
2022-09-28T01:22:58.541Z,2.83
2022-09-28T01:25:38.636Z,3.05
2022-09-28T01:28:07.498Z,1.88
2022-09-28T01:30:39.383Z,1.65
2022-09-28T01:33:08.378Z,1.90
2022-09-28T01:35:43.230Z,3.42
2022-09-28T01:38:14.588Z,2.00
2022-09-28T01:40:41.326Z,2.30
2022-09-28T01:43:15.511Z,2.13
2022-09-28T01:45:47.729Z,2.80
2022-09-28T01:48:17.041Z,2.83
2022-09-28T01:50:46.068Z,2.38
2022-09-28T01:53:16.431Z,3.17
2022-09-28T01:55:47.635Z,1.90
2022-09-28T01:58:28.016Z,2.53
2022-09-28T02:00:58.528Z,2.90
2022-09-28T02:03:29.397Z,1.60
2022-09-28T02:06:25.028Z,3.50
2022-09-28T02:09:00.037Z,3.75
2022-09-28T02:11:26.288Z,3.28
2022-09-28T02:13:55.392Z,3.65
2022-09-28T02:16:26.238Z,3.40
2022-09-28T02:18:52.556Z,3.30
2022-09-28T02:21:25.549Z,3.22
2022-09-28T02:23:57.156Z,5.78
2022-09-28T02:26:27.114Z,3.35
2022-09-28T02:28:53.553Z,2.55
2022-09-28T02:31:19.894Z,2.83
2022-09-28T02:33:47.126Z,2.50
2022-09-28T02:36:13.556Z,2.78
2022-09-28T02:38:39.841Z,3.00
2022-09-28T02:41:14.165Z,3.00
2022-09-28T02:43:40.404Z,3.13
2022-09-28T02:46:29.659Z,2.22
2022-09-28T02:49:20.161Z,3.50
2022-09-28T02:52:13.646Z,4.95
2022-09-28T02:54:42.960Z,2.90
2022-09-28T02:57:26.306Z,3.40
2022-09-28T03:00:02.062Z,4.93
2022-09-28T03:02:34.205Z,3.05
2022-09-28T03:05:09.633Z,4.22
2022-09-28T03:07:38.317Z,3.88
2022-09-28T03:10:10.875Z,3.05
2022-09-28T03:12:37.940Z,2.95
2022-09-28T03:15:09.499Z,4.25
2022-09-28T03:17:35.850Z,3.40
2022-09-28T03:20:02.536Z,3.35
2022-09-28T03:22:29.080Z,4.50
2022-09-28T03:24:55.339Z,3.00
2022-09-28T03:27:21.795Z,3.53
2022-09-28T03:29:48.304Z,3.53
2022-09-28T03:32:14.581Z,3.70
2022-09-28T03:34:41.005Z,2.65
2022-09-28T03:37:07.254Z,2.88
2022-09-28T03:39:33.509Z,3.25
2022-09-28T03:42:00.660Z,4.18
2022-09-28T03:44:26.911Z,2.25
2022-09-28T03:46:53.189Z,2.45
2022-09-28T03:49:19.528Z,4.38
2022-09-28T03:51:46.708Z,3.15
2022-09-28T03:54:13.039Z,3.65
2022-09-28T03:56:39.880Z,2.75
2022-09-28T03:59:06.194Z,3.67
2022-09-28T04:01:32.761Z,3.47
2022-09-28T04:03:59.150Z,3.05
2022-09-28T04:06:25.940Z,2.65
2022-09-28T04:08:52.258Z,3.65
2022-09-28T04:11:18.872Z,2.55
2022-09-28T04:13:47.738Z,2.95
2022-09-28T04:16:14.074Z,3.10
2022-09-28T04:18:40.395Z,3.42
2022-09-28T04:21:07.348Z,3.80
2022-09-28T04:23:34.646Z,3.10
2022-09-28T04:26:00.961Z,2.45
2022-09-28T04:28:45.972Z,2.70
2022-09-28T04:31:14.862Z,3.70
2022-09-28T04:33:41.729Z,3.47
2022-09-28T04:36:09.330Z,3.45
2022-09-28T04:38:52.450Z,3.50
2022-09-28T04:41:19.799Z,2.92
2022-09-28T04:43:49.157Z,4.13
2022-09-28T04:46:15.507Z,3.58
2022-09-28T04:48:41.839Z,4.15
2022-09-28T04:51:08.168Z,3.38
2022-09-28T04:53:35.082Z,3.28
2022-09-28T04:56:01.392Z,4.70
2022-09-28T04:58:28.093Z,3.00
2022-09-28T05:00:57.795Z,2.45
2022-09-28T05:03:24.105Z,3.80
2022-09-28T05:05:50.696Z,3.35
2022-09-28T05:08:17.153Z,2.63
2022-09-28T05:10:43.460Z,2.75
2022-09-28T05:13:10.844Z,3.08
2022-09-28T05:15:37.464Z,3.85
2022-09-28T05:18:03.935Z,4.10
2022-09-28T05:20:30.307Z,5.03
2022-09-28T05:22:56.982Z,3.70
2022-09-28T05:25:23.517Z,3.17
2022-09-28T05:27:55.709Z,4.43
2022-09-28T05:30:22.770Z,4.82
2022-09-28T05:32:51.738Z,3.08
2022-09-28T05:35:18.220Z,4.85
2022-09-28T05:37:44.510Z,4.88
2022-09-28T05:40:11.064Z,2.58
2022-09-28T05:42:37.371Z,4.32
2022-09-28T05:45:03.982Z,4.00
2022-09-28T05:47:30.289Z,3.70
2022-09-28T05:49:56.881Z,3.60
2022-09-28T05:52:24.352Z,5.35
2022-09-28T05:54:50.729Z,3.45
2022-09-28T05:57:17.123Z,5.80
2022-09-28T05:59:43.455Z,4.13
2022-09-28T06:02:09.999Z,5.05
2022-09-28T06:04:36.352Z,6.22
2022-09-28T06:07:02.635Z,4.53
2022-09-28T06:09:30.074Z,3.05
2022-09-28T06:11:58.157Z,4.88
2022-09-28T06:14:24.534Z,4.43
2022-09-28T06:16:51.042Z,4.25
2022-09-28T06:19:17.775Z,7.25
2022-09-28T06:21:44.347Z,6.15
2022-09-28T06:24:10.670Z,3.95
2022-09-28T06:26:36.963Z,3.50
2022-09-28T06:29:03.397Z,4.15
2022-09-28T06:31:30.083Z,4.35
2022-09-28T06:33:56.415Z,4.40
2022-09-28T06:36:23.016Z,4.28
2022-09-28T06:38:49.371Z,4.07
2022-09-28T06:41:15.655Z,5.70
2022-09-28T06:43:41.973Z,3.35
2022-09-28T06:46:09.896Z,4.13
2022-09-28T06:48:36.389Z,4.00
2022-09-28T06:51:02.680Z,3.35
2022-09-28T06:53:29.296Z,3.72
2022-09-28T06:55:56.097Z,2.95
2022-09-28T06:58:22.456Z,4.55
2022-09-28T07:00:50.242Z,2.83
2022-09-28T07:03:18.102Z,3.55
2022-09-28T07:05:45.586Z,3.40
2022-09-28T07:08:12.348Z,4.65
2022-09-28T07:10:42.962Z,3.00
2022-09-28T07:13:17.880Z,6.88
2022-09-28T07:15:56.059Z,2.80
2022-09-28T07:18:23.355Z,4.65
2022-09-28T07:20:54.254Z,2.53
2022-09-28T07:23:20.874Z,3.10
2022-09-28T07:25:48.735Z,4.32
2022-09-28T07:28:15.496Z,3.45
2022-09-28T07:30:44.625Z,5.07
2022-09-28T07:33:12.653Z,3.80
2022-09-28T07:35:38.966Z,3.75
2022-09-28T07:38:06.438Z,4.25
2022-09-28T07:40:51.921Z,6.10
2022-09-28T07:43:21.517Z,4.32
2022-09-28T07:45:48.742Z,3.35
2022-09-28T07:48:18.651Z,2.78
2022-09-28T07:50:49.219Z,2.55
2022-09-28T07:53:15.821Z,3.60
2022-09-28T07:55:42.153Z,3.05
2022-09-28T07:58:08.457Z,3.38
2022-09-28T08:00:34.758Z,3.60
2022-09-28T08:03:01.772Z,2.53
2022-09-28T08:05:31.390Z,3.35
2022-09-28T08:07:59.565Z,5.25
2022-09-28T08:10:26.329Z,3.45
2022-09-28T08:12:59.231Z,3.75
2022-09-28T08:15:28.401Z,3.97
2022-09-28T08:17:56.117Z,3.33
2022-09-28T08:20:42.911Z,4.38
2022-09-28T08:23:09.614Z,3.47
2022-09-28T08:25:38.124Z,3.55
2022-09-28T08:28:06.106Z,4.38
2022-09-28T08:30:32.564Z,3.25
2022-09-28T08:32:58.997Z,2.90
2022-09-28T08:35:25.672Z,3.47
2022-09-28T08:37:55.620Z,4.18
2022-09-28T08:40:25.999Z,3.03
2022-09-28T08:42:58.030Z,3.10
2022-09-28T08:45:28.598Z,3.53
2022-09-28T08:48:37.548Z,2.42
2022-09-28T08:51:07.744Z,2.88
2022-09-28T08:53:38.077Z,3.63
2022-09-28T08:56:06.327Z,4.53
2022-09-28T08:58:35.910Z,3.08
2022-09-28T09:01:03.037Z,3.95
2022-09-28T09:03:34.141Z,3.50
2022-09-28T09:06:09.240Z,4.25
2022-09-28T09:08:35.446Z,3.67
2022-09-28T09:11:20.666Z,4.75
2022-09-28T09:14:02.219Z,5.57
2022-09-28T09:16:39.385Z,5.97
2022-09-28T09:19:25.643Z,7.07
2022-09-28T09:22:01.264Z,7.70
2022-09-28T09:24:33.381Z,6.38
2022-09-28T09:27:04.689Z,7.22
2022-09-28T09:29:37.266Z,10.35
2022-09-28T09:32:21.963Z,9.68
2022-09-28T09:35:04.965Z,7.97
2022-09-28T09:37:37.407Z,9.70
2022-09-28T09:40:19.064Z,9.07
2022-09-28T09:43:09.707Z,8.75
2022-09-28T09:45:54.113Z,9.73
2022-09-28T09:48:20.795Z,8.32
2022-09-28T09:50:49.558Z,9.38
2022-09-28T09:53:37.763Z,10.23
2022-09-28T09:56:17.005Z,9.57
2022-09-28T09:58:52.654Z,8.43
2022-09-28T10:01:29.847Z,8.52
2022-09-28T10:03:56.442Z,8.73
2022-09-28T10:06:27.418Z,11.65
2022-09-28T10:09:10.061Z,9.27
2022-09-28T10:11:38.508Z,9.80
2022-09-28T10:14:06.101Z,9.50
2022-09-28T10:16:33.143Z,12.80
2022-09-28T10:19:00.215Z,7.95
2022-09-28T10:21:27.224Z,9.95
2022-09-28T10:24:02.497Z,7.78
2022-09-28T10:26:37.366Z,8.57
2022-09-28T10:29:05.574Z,8.50
2022-09-28T10:31:36.471Z,9.43
2022-09-28T10:34:03.269Z,11.68
2022-09-28T10:36:29.839Z,11.80
2022-09-28T10:38:56.556Z,10.18
2022-09-28T10:41:22.868Z,11.73
2022-09-28T10:44:06.069Z,8.70
2022-09-28T10:46:33.538Z,8.70
2022-09-28T10:49:02.786Z,9.70
2022-09-28T10:51:42.632Z,13.63
2022-09-28T10:54:14.466Z,8.90
2022-09-28T10:56:41.816Z,10.05
2022-09-28T10:59:27.047Z,10.65
2022-09-28T11:02:04.566Z,11.95
2022-09-28T11:04:36.588Z,13.63
2022-09-28T11:07:02.870Z,14.18
2022-09-28T11:09:31.153Z,15.23
2022-09-28T11:11:58.521Z,11.65
2022-09-28T11:14:27.516Z,11.27
2022-09-28T11:17:14.656Z,10.18
2022-09-28T11:19:42.134Z,15.75
2022-09-28T11:22:21.841Z,12.68
2022-09-28T11:24:48.889Z,12.50
2022-09-28T11:27:25.479Z,12.05
2022-09-28T11:29:56.487Z,11.80
2022-09-28T11:32:28.833Z,10.68
2022-09-28T11:34:59.975Z,11.35
2022-09-28T11:37:43.333Z,14.80
2022-09-28T11:40:28.507Z,12.70
2022-09-28T11:43:01.071Z,9.80
2022-09-28T11:45:30.484Z,11.25
2022-09-28T11:47:59.792Z,12.45
2022-09-28T11:50:41.469Z,10.40
2022-09-28T11:53:14.170Z,12.48
2022-09-28T11:55:42.967Z,9.32
2022-09-28T11:58:17.905Z,10.20
2022-09-28T12:00:47.713Z,9.20
2022-09-28T12:03:34.284Z,11.13
2022-09-28T12:08:32.628Z,9.82
2022-09-28T12:11:01.591Z,10.32
2022-09-28T12:13:29.896Z,9.35
2022-09-28T12:16:23.291Z,9.07
2022-09-28T12:19:04.268Z,8.05
2022-09-28T12:21:39.404Z,10.23
2022-09-28T12:24:24.516Z,9.73
2022-09-28T12:26:50.928Z,9.38
2022-09-28T12:29:22.917Z,6.22
2022-09-28T12:31:58.207Z,8.05
2022-09-28T12:34:24.693Z,9.07
2022-09-28T12:36:58.393Z,7.63
2022-09-28T12:39:53.393Z,7.45
2022-09-28T12:42:31.911Z,8.27
2022-09-28T12:45:24.563Z,7.00
2022-09-28T12:47:53.983Z,8.95
2022-09-28T12:50:39.293Z,7.93
2022-09-28T12:53:15.318Z,8.88
2022-09-28T12:55:44.876Z,8.10
2022-09-28T12:58:29.805Z,7.82
2022-09-28T13:01:05.367Z,7.43
2022-09-28T13:03:58.100Z,7.72
2022-09-28T13:06:27.723Z,8.05
2022-09-28T13:09:09.452Z,9.20
2022-09-28T13:11:36.012Z,7.53
2022-09-28T13:14:20.966Z,10.90
2022-09-28T13:16:55.212Z,10.25
2022-09-28T13:19:36.190Z,8.80
2022-09-28T13:22:21.902Z,12.95
2022-09-28T13:24:48.805Z,7.63
2022-09-28T13:27:17.307Z,10.50
2022-09-28T13:29:43.898Z,9.13
2022-09-28T13:32:12.520Z,9.27
2022-09-28T13:34:40.435Z,9.77
2022-09-28T13:37:23.379Z,10.65
2022-09-28T13:39:55.039Z,7.45
2022-09-28T13:42:27.601Z,5.97
2022-09-28T13:45:03.208Z,7.60
2022-09-28T13:47:42.261Z,7.63
2022-09-28T13:50:22.291Z,7.63
2022-09-28T13:53:07.614Z,6.47
2022-09-28T13:55:49.333Z,7.35
2022-09-28T13:58:21.810Z,5.80
2022-09-28T14:00:54.140Z,7.32
2022-09-28T14:03:26.178Z,5.57
2022-09-28T14:06:03.402Z,5.93
2022-09-28T14:08:41.920Z,4.40
2022-09-28T14:11:25.294Z,5.55
2022-09-28T14:13:58.785Z,5.22
2022-09-28T14:16:31.037Z,5.88
2022-09-28T14:19:03.307Z,9.40
2022-09-28T14:21:41.555Z,5.30
2022-09-28T14:24:20.429Z,5.40
2022-09-28T14:27:06.238Z,6.78
2022-09-28T14:29:34.416Z,3.95
2022-09-28T14:32:05.374Z,4.40
2022-09-28T14:34:37.532Z,3.83
2022-09-28T14:37:23.686Z,5.80
2022-09-28T14:40:08.979Z,5.60
2022-09-28T14:42:35.267Z,5.22
2022-09-28T14:45:06.846Z,4.05
2022-09-28T14:47:33.945Z,4.47
2022-09-28T14:50:00.786Z,7.07
2022-09-28T14:52:42.960Z,7.03
2022-09-28T14:55:17.216Z,4.07
2022-09-28T14:57:43.645Z,5.30
2022-09-28T15:00:24.357Z,6.70
2022-09-28T15:02:52.669Z,5.30
2022-09-28T15:05:35.781Z,5.15
2022-09-28T15:08:02.587Z,5.65
2022-09-28T15:10:33.209Z,6.20
2022-09-28T15:13:01.726Z,7.00
2022-09-28T15:15:31.760Z,4.53
2022-09-28T15:18:05.192Z,3.95
2022-09-28T15:20:35.214Z,4.13
2022-09-28T15:23:01.891Z,4.55
2022-09-28T15:25:32.026Z,5.28
2022-09-28T15:28:00.981Z,4.75
2022-09-28T15:30:27.585Z,5.80
2022-09-28T15:32:56.648Z,4.55
2022-09-28T15:35:26.621Z,6.82
2022-09-28T15:37:54.234Z,4.45
2022-09-28T15:40:31.632Z,4.85
2022-09-28T15:42:59.447Z,5.50
2022-09-28T15:45:34.397Z,4.22
2022-09-28T15:48:17.800Z,5.53
2022-09-28T15:50:55.047Z,4.93
2022-09-28T15:53:21.351Z,6.80
2022-09-28T15:55:55.057Z,4.68
2022-09-28T15:58:22.613Z,5.47
2022-09-28T16:00:50.015Z,5.05
2022-09-28T16:03:27.734Z,4.80
2022-09-28T16:05:57.141Z,7.28
2022-09-28T16:08:35.601Z,4.40
2022-09-28T16:11:23.888Z,5.25
2022-09-28T16:14:07.943Z,6.13
2022-09-28T16:16:35.604Z,6.00
2022-09-28T16:19:02.275Z,4.00
2022-09-28T16:21:28.593Z,5.70
2022-09-28T16:23:58.204Z,5.80
2022-09-28T16:26:35.717Z,5.15
2022-09-28T16:29:06.319Z,4.78
2022-09-28T16:31:41.137Z,6.07
2022-09-28T16:34:11.398Z,5.53
2022-09-28T16:36:48.199Z,7.30
2022-09-28T16:39:16.466Z,5.15
2022-09-28T16:41:44.929Z,5.40
2022-09-28T16:44:16.820Z,5.80
2022-09-28T16:46:44.411Z,5.10
2022-09-28T16:49:13.216Z,4.75
2022-09-28T16:51:40.111Z,4.97
2022-09-28T16:54:38.524Z,3.90
2022-09-28T16:57:05.664Z,6.63
2022-09-28T16:59:32.124Z,3.75
2022-09-28T17:01:58.591Z,4.63
2022-09-28T17:04:25.412Z,4.60
2022-09-28T17:06:54.154Z,5.18
2022-09-28T17:09:21.369Z,5.47
2022-09-28T17:11:47.696Z,6.15
2022-09-28T17:14:14.065Z,6.15
2022-09-28T17:17:06.728Z,6.68
2022-09-28T17:19:30.914Z,10.88
2022-09-28T17:21:57.252Z,10.13
2022-09-28T17:24:23.510Z,12.70
2022-09-28T17:26:50.689Z,14.50
2022-09-28T17:29:17.306Z,14.70
2022-09-28T17:31:44.253Z,13.35
2022-09-28T17:34:11.617Z,13.70
2022-09-28T17:36:38.402Z,10.68
2022-09-28T17:39:05.345Z,8.23
2022-09-28T17:41:32.183Z,10.93
2022-09-28T17:43:58.468Z,7.18
2022-09-28T17:46:32.112Z,9.43
2022-09-28T17:49:02.154Z,9.25
2022-09-28T17:51:30.069Z,12.65
2022-09-28T17:53:57.274Z,8.93
2022-09-28T17:56:27.411Z,9.63
2022-09-28T17:58:56.966Z,7.45
2022-09-28T18:01:23.628Z,9.70
2022-09-28T18:03:50.345Z,9.55
2022-09-28T18:06:22.179Z,9.40
2022-09-28T18:08:48.879Z,8.30
2022-09-28T18:11:17.274Z,7.63
2022-09-28T18:13:45.822Z,8.13
2022-09-28T18:16:12.867Z,6.90
2022-09-28T18:18:39.828Z,10.85
2022-09-28T18:21:06.881Z,10.27
2022-09-28T18:23:35.673Z,8.13
2022-09-28T18:26:02.102Z,9.38
2022-09-28T18:28:28.374Z,6.88
2022-09-28T18:30:54.686Z,6.78
2022-09-28T18:33:21.004Z,9.50
2022-09-28T18:35:54.207Z,7.57
2022-09-28T18:38:20.872Z,8.40
2022-09-28T18:40:48.165Z,11.90
2022-09-28T18:43:14.754Z,13.88
2022-09-28T18:45:41.013Z,9.18
2022-09-28T18:48:07.656Z,11.10
2022-09-28T18:50:35.114Z,8.82
2022-09-28T18:53:11.731Z,8.60
2022-09-28T18:55:42.271Z,9.07
2022-09-28T18:58:09.585Z,7.85
2022-09-28T19:00:37.469Z,13.77
2022-09-28T19:03:05.243Z,8.60
2022-09-28T19:05:31.606Z,8.65
2022-09-28T19:07:57.919Z,9.93
2022-09-28T19:10:24.178Z,7.47
2022-09-28T19:12:51.955Z,9.45
2022-09-28T19:15:19.999Z,9.15
2022-09-28T19:17:47.515Z,8.70
2022-09-28T19:20:13.822Z,10.20
2022-09-28T19:22:40.057Z,8.32
2022-09-28T19:25:06.717Z,7.38
2022-09-28T19:27:32.951Z,7.10
2022-09-28T19:29:59.248Z,6.13
2022-09-28T19:32:25.517Z,7.68
2022-09-28T19:34:51.820Z,7.22
2022-09-28T19:37:18.070Z,6.22
2022-09-28T19:39:45.330Z,6.25
2022-09-28T19:42:11.577Z,6.65
2022-09-28T19:44:39.136Z,7.45
2022-09-28T19:47:10.186Z,7.78
2022-09-28T19:49:37.371Z,6.30
2022-09-28T19:52:20.767Z,5.70
2022-09-28T19:54:54.348Z,5.95
2022-09-28T19:57:20.744Z,6.85
2022-09-28T19:59:52.004Z,6.47
2022-09-28T20:02:18.954Z,4.90
2022-09-28T20:04:45.313Z,6.30
2022-09-28T20:07:11.639Z,6.13
2022-09-28T20:09:37.897Z,6.20
2022-09-28T20:12:04.185Z,6.70
2022-09-28T20:14:34.001Z,6.43
2022-09-28T20:17:02.938Z,5.97
2022-09-28T20:19:29.387Z,7.75
2022-09-28T20:21:58.513Z,5.28
2022-09-28T20:24:25.086Z,5.57
2022-09-28T20:26:51.330Z,4.28
2022-09-28T20:29:17.565Z,6.25
2022-09-28T20:31:44.013Z,5.20
2022-09-28T20:34:10.550Z,5.40
2022-09-28T20:36:36.857Z,6.10
2022-09-28T20:39:03.786Z,4.93
2022-09-28T20:41:34.619Z,6.22
2022-09-28T20:44:05.034Z,6.32
2022-09-28T20:46:31.883Z,5.28
2022-09-28T20:48:59.422Z,5.07
2022-09-28T20:51:25.778Z,5.50
2022-09-28T20:53:55.837Z,5.63
2022-09-28T20:56:23.134Z,5.00
2022-09-28T20:58:50.975Z,4.75
2022-09-28T21:01:19.684Z,4.47
2022-09-28T21:03:48.045Z,5.05
2022-09-28T21:06:15.193Z,6.13
2022-09-28T21:08:41.767Z,6.18
2022-09-28T21:11:08.274Z,4.93
2022-09-28T21:13:34.590Z,5.00
2022-09-28T21:16:01.787Z,4.32
2022-09-28T21:18:28.186Z,6.13
2022-09-28T21:20:54.420Z,5.85
2022-09-28T21:23:24.693Z,4.95
2022-09-28T21:26:00.462Z,5.32
2022-09-28T21:28:26.717Z,5.22
2022-09-28T21:30:52.971Z,4.38
2022-09-28T21:33:19.285Z,3.50
2022-09-28T21:35:45.520Z,3.95
2022-09-28T21:38:11.767Z,4.15
2022-09-28T21:40:38.077Z,4.95
2022-09-28T21:43:04.361Z,5.10
2022-09-28T21:45:31.623Z,4.47
2022-09-28T21:47:58.486Z,4.50
2022-09-28T21:50:25.722Z,3.35
2022-09-28T21:52:53.248Z,3.45
2022-09-28T21:55:20.386Z,3.63
2022-09-28T21:57:47.293Z,3.97
2022-09-28T22:00:15.113Z,3.65
2022-09-28T22:02:41.724Z,4.22
2022-09-28T22:05:08.494Z,4.03
2022-09-28T22:07:35.835Z,2.75
2022-09-28T22:10:02.154Z,3.63
2022-09-28T22:12:29.658Z,5.10
2022-09-28T22:14:56.196Z,2.88
2022-09-28T22:17:22.482Z,3.67
2022-09-28T22:19:48.753Z,3.30
2022-09-28T22:22:14.984Z,3.97
2022-09-28T22:24:41.303Z,3.83
2022-09-28T22:27:07.541Z,4.00
2022-09-28T22:29:33.809Z,5.05
2022-09-28T22:32:02.311Z,4.07
2022-09-28T22:34:30.766Z,4.25
2022-09-28T22:36:58.124Z,3.00
2022-09-28T22:39:24.432Z,4.07
2022-09-28T22:41:51.199Z,2.72
2022-09-28T22:44:17.439Z,3.88
2022-09-28T22:46:43.702Z,3.75
2022-09-28T22:49:11.207Z,3.42
2022-09-28T22:51:37.466Z,4.78
2022-09-28T22:54:03.833Z,3.15
2022-09-28T22:56:30.117Z,3.05
2022-09-28T22:58:56.475Z,3.10
2022-09-28T23:01:24.065Z,4.85
2022-09-28T23:03:51.255Z,4.32
2022-09-28T23:06:18.404Z,3.40
2022-09-28T23:08:45.358Z,3.67
2022-09-28T23:11:11.618Z,3.97
2022-09-28T23:13:38.299Z,3.47
2022-09-28T23:16:05.766Z,3.85
2022-09-28T23:18:33.043Z,4.90
2022-09-28T23:21:03.690Z,3.08
2022-09-28T23:23:30.123Z,4.13
2022-09-28T23:25:56.389Z,3.60
2022-09-28T23:28:23.385Z,2.35
2022-09-28T23:30:49.704Z,4.60
2022-09-28T23:33:16.917Z,4.90
2022-09-28T23:35:43.973Z,3.17
2022-09-28T23:38:11.047Z,3.05
2022-09-28T23:40:37.539Z,3.92
2022-09-28T23:43:04.045Z,4.15
2022-09-28T23:45:30.320Z,5.10
2022-09-28T23:47:56.779Z,2.80
2022-09-28T23:50:23.681Z,3.47
2022-09-28T23:52:50.311Z,3.95
2022-09-28T23:55:16.789Z,4.50
2022-09-28T23:57:45.727Z,4.22
